Time;durP1;ratioP1;P1;durP2;ratioP2;P2;SDS_P1;SDS_P2;PMS_P1;PMS_P2;Temp;Humidity;BMP_temperature;BMP_pressure;BME280_temperature;BME280_humidity;BME280_pressure;Samples;Min_cycle;Max_cycle;Signal;HPM_P1;HPM_P2
2021/05/13 00:01:11;;;;;;;4.90;4.40;;;;;;;11.71;76.79;100395.72;4986831;28;20046;-67
2021/05/13 00:03:37;;;;;;;6.32;4.90;;;;;;;11.56;76.92;100391.47;4967485;28;20073;-65
2021/05/13 00:06:04;;;;;;;5.32;4.80;;;;;;;11.71;77.22;100409.00;4970786;28;20069;-66
2021/05/13 00:08:30;;;;;;;9.48;6.22;;;;;;;11.52;76.88;100386.22;4970539;28;20043;-64
2021/05/13 00:11:03;;;;;;;10.25;5.72;;;;;;;11.62;76.94;100404.69;4968834;28;20050;-67
2021/05/13 00:13:31;;;;;;;9.65;6.47;;;;;;;11.58;77.25;100412.66;4988055;28;20052;-64
2021/05/13 00:15:57;;;;;;;7.03;5.70;;;;;;;11.56;76.98;100425.09;4954738;28;20042;-63
2021/05/13 00:18:24;;;;;;;9.30;6.03;;;;;;;11.56;77.14;100420.69;4986090;28;20061;-69
2021/05/13 00:20:50;;;;;;;10.73;6.32;;;;;;;11.56;77.07;100414.47;4987815;28;20038;-64
2021/05/13 00:23:16;;;;;;;8.30;6.47;;;;;;;11.52;76.95;100413.63;4988025;28;20108;-65
2021/05/13 00:25:43;;;;;;;10.68;6.72;;;;;;;11.49;77.44;100421.66;4968935;28;20050;-70
2021/05/13 00:28:09;;;;;;;11.48;7.22;;;;;;;11.49;76.83;100420.78;4968493;28;20101;-64
2021/05/13 00:30:35;;;;;;;8.70;6.47;;;;;;;11.40;77.12;100419.09;4951748;28;20050;-64
2021/05/13 00:33:02;;;;;;;9.30;6.13;;;;;;;11.14;77.39;100388.47;4952686;28;20053;-64
2021/05/13 00:35:28;;;;;;;6.57;5.85;;;;;;;11.35;77.93;100414.78;4953325;28;20078;-70
2021/05/13 00:37:55;;;;;;;7.40;5.68;;;;;;;11.00;78.32;100391.28;4983605;28;20078;-66
2021/05/13 00:40:22;;;;;;;7.25;5.88;;;;;;;11.14;78.92;100413.25;4986072;28;20046;-65
2021/05/13 00:42:49;;;;;;;5.85;5.25;;;;;;;11.26;78.33;100417.53;4987737;28;20056;-65
2021/05/13 00:45:17;;;;;;;11.65;5.32;;;;;;;11.25;78.39;100399.84;4968054;28;20042;-66
2021/05/13 00:47:48;;;;;;;7.20;5.13;;;;;;;11.28;77.92;100416.59;4970258;28;20038;-65
2021/05/13 00:50:16;;;;;;;5.63;4.90;;;;;;;11.24;78.48;100422.84;4986194;28;20046;-65
2021/05/13 00:52:42;;;;;;;5.72;4.35;;;;;;;11.27;77.97;100406.03;4985300;28;20639;-68
2021/05/13 00:55:09;;;;;;;7.40;5.30;;;;;;;11.31;77.64;100424.53;4948854;28;20050;-64
2021/05/13 00:57:36;;;;;;;6.30;5.00;;;;;;;11.27;77.77;100406.88;4986894;28;20060;-65
2021/05/13 01:00:17;;;;;;;9.57;5.65;;;;;;;11.24;77.63;100398.09;4952771;28;20044;-65
2021/05/13 01:02:44;;;;;;;6.90;4.88;;;;;;;11.21;77.46;100406.09;4969494;28;20053;-66
2021/05/13 01:05:10;;;;;;;7.35;5.20;;;;;;;11.28;78.22;100411.28;4986738;28;20053;-63
2021/05/13 01:07:36;;;;;;;5.20;4.68;;;;;;;11.25;77.50;100410.47;4985443;28;20074;-68
2021/05/13 01:10:02;;;;;;;8.73;5.10;;;;;;;11.16;77.26;100392.00;4983962;28;20151;-65
2021/05/13 01:12:29;;;;;;;6.07;5.40;;;;;;;11.23;77.24;100393.69;4985273;28;20049;-63
2021/05/13 01:14:56;;;;;;;6.07;4.97;;;;;;;11.23;77.34;100415.78;4953014;28;20050;-64
2021/05/13 01:17:53;;;;;;;7.00;5.40;;;;;;;11.17;77.63;100415.00;4962844;28;20042;-63
2021/05/13 01:20:22;;;;;;;6.53;5.70;;;;;;;11.18;77.78;100417.63;4953408;28;20038;-62
2021/05/13 01:22:48;;;;;;;6.40;5.47;;;;;;;11.12;78.20;100419.47;4983165;28;20085;-64
2021/05/13 01:25:14;;;;;;;6.10;4.75;;;;;;;11.13;78.06;100427.44;4984424;28;20097;-64
2021/05/13 01:27:40;;;;;;;6.93;5.78;;;;;;;11.07;78.04;100427.50;4969141;28;20042;-63
2021/05/13 01:30:06;;;;;;;6.30;5.15;;;;;;;11.14;78.15;100434.50;4951739;28;20053;-67
2021/05/13 01:32:32;;;;;;;7.55;4.85;;;;;;;10.97;78.28;100425.84;4985754;28;20193;-64
2021/05/13 01:34:58;;;;;;;5.78;5.18;;;;;;;11.06;77.70;100435.47;4969260;28;20145;-63
2021/05/13 01:37:24;;;;;;;7.15;5.70;;;;;;;10.97;78.14;100431.16;4969238;28;20042;-63
2021/05/13 01:39:51;;;;;;;6.43;4.30;;;;;;;11.04;77.84;100437.28;4965931;28;20046;-65
2021/05/13 01:42:17;;;;;;;6.22;5.47;;;;;;;10.96;78.11;100421.41;4968711;28;20192;-63
2021/05/13 01:44:44;;;;;;;5.93;5.32;;;;;;;11.05;77.31;100441.69;4983939;28;20133;-63
2021/05/13 01:47:10;;;;;;;6.90;5.10;;;;;;;11.05;77.62;100441.69;4984663;28;20189;-68
2021/05/13 01:49:36;;;;;;;5.88;5.00;;;;;;;11.05;77.73;100447.88;4982103;28;20221;-63
2021/05/13 01:52:02;;;;;;;7.63;6.15;;;;;;;10.90;77.71;100450.69;4966931;28;20230;-64
2021/05/13 01:54:28;;;;;;;8.43;5.70;;;;;;;11.01;78.00;100451.47;4931844;28;20166;-64
2021/05/13 01:57:05;;;;;;;7.88;6.03;;;;;;;10.99;77.64;100452.38;4962408;28;20050;-64
2021/05/13 01:59:32;;;;;;;7.03;5.88;;;;;;;11.06;77.49;100449.63;4949581;28;20502;-65
2021/05/13 02:01:59;;;;;;;8.27;5.85;;;;;;;10.94;77.89;100443.56;4965098;28;20121;-63
2021/05/13 02:04:26;;;;;;;7.05;6.13;;;;;;;11.01;77.89;100442.59;4948282;28;20108;-65
2021/05/13 02:06:52;;;;;;;8.07;6.38;;;;;;;10.92;77.85;100426.78;4964503;28;20047;-64
2021/05/13 02:09:18;;;;;;;10.50;6.32;;;;;;;10.83;78.58;100433.06;4970713;28;20049;-66
2021/05/13 02:11:43;;;;;;;16.08;5.85;;;;;;;11.04;77.66;100446.09;4953571;28;20081;-64
2021/05/13 02:14:09;;;;;;;8.07;6.28;;;;;;;11.05;77.56;100444.34;4987253;28;20077;-64
2021/05/13 02:16:35;;;;;;;7.75;6.20;;;;;;;11.04;77.87;100448.75;4956194;28;20092;-63
2021/05/13 02:19:01;;;;;;;7.60;6.45;;;;;;;11.00;77.65;100459.44;4990289;28;20042;-64
2021/05/13 02:21:27;;;;;;;8.18;7.03;;;;;;;11.01;78.10;100451.47;4970526;28;20164;-73
2021/05/13 02:23:53;;;;;;;8.50;7.35;;;;;;;11.13;77.05;100448.66;4955814;28;20316;-63
2021/05/13 02:26:20;;;;;;;9.65;6.53;;;;;;;11.13;77.09;100450.44;4972349;28;20062;-63
2021/05/13 02:28:48;;;;;;;9.82;7.20;;;;;;;11.02;77.59;100449.66;4940604;28;20038;-62
2021/05/13 02:31:14;;;;;;;9.65;6.93;;;;;;;11.02;76.82;100441.69;4936641;28;20042;-62
2021/05/13 02:33:47;;;;;;;12.07;6.97;;;;;;;11.08;77.20;100452.25;4971547;28;20042;-71
2021/05/13 02:36:13;;;;;;;8.70;6.75;;;;;;;10.94;77.91;100460.38;4970739;28;20473;-63
2021/05/13 02:38:39;;;;;;;10.65;7.03;;;;;;;10.90;77.92;100452.44;4952050;28;20049;-65
2021/05/13 02:41:13;;;;;;;8.40;6.68;;;;;;;11.01;77.54;100448.81;4987142;28;20122;-63
2021/05/13 02:43:39;;;;;;;8.30;6.72;;;;;;;11.03;77.69;100448.78;4970097;28;20082;-64
2021/05/13 02:46:06;;;;;;;10.02;7.07;;;;;;;11.11;77.75;100449.59;4968371;28;20030;-70
2021/05/13 02:48:31;;;;;;;9.57;6.85;;;;;;;11.14;77.91;100450.41;4954071;28;20100;-64
2021/05/13 02:50:57;;;;;;;11.13;7.30;;;;;;;11.18;77.32;100449.50;4986955;28;20078;-65
2021/05/13 02:53:23;;;;;;;8.07;6.68;;;;;;;11.12;76.87;100428.31;4986865;28;20073;-63
2021/05/13 02:55:49;;;;;;;7.38;6.43;;;;;;;11.23;76.95;100426.41;4983644;28;20046;-64
2021/05/13 02:58:16;;;;;;;9.73;6.50;;;;;;;11.41;76.60;100430.63;4970665;28;20065;-64
2021/05/13 03:03:36;;;;;;;9.85;6.45;;;;;;;11.44;76.72;100438.56;4928846;29;20074;-66
2021/05/13 03:06:03;;;;;;;7.22;6.20;;;;;;;11.43;76.35;100439.47;4897468;29;20126;-63
2021/05/13 03:08:29;;;;;;;8.02;6.13;;;;;;;11.40;76.81;100432.38;4927792;29;20082;-63
2021/05/13 03:10:56;;;;;;;12.18;5.38;;;;;;;11.56;76.79;100443.69;4910012;29;20122;-63
2021/05/13 03:13:24;;;;;;;7.30;6.18;;;;;;;11.55;76.69;100445.47;4913074;29;20054;-62
2021/05/13 03:15:50;;;;;;;9.70;6.00;;;;;;;11.62;76.12;100443.63;4928990;29;20051;-62
2021/05/13 03:18:17;;;;;;;10.95;5.97;;;;;;;11.49;76.60;100437.59;4927430;29;20067;-63
2021/05/13 03:20:55;;;;;;;8.27;6.00;;;;;;;11.55;75.55;100415.41;4929206;29;20059;-63
2021/05/13 03:23:27;;;;;;;7.95;5.85;;;;;;;11.72;75.59;100439.97;4927792;29;20504;-62
2021/05/13 03:26:00;;;;;;;8.20;6.10;;;;;;;11.64;75.17;100433.88;4890502;29;20927;-64
2021/05/13 03:28:26;;;;;;;11.68;5.40;;;;;;;11.67;74.42;100401.97;4909666;29;20155;-63
2021/05/13 03:30:52;;;;;;;7.22;5.25;;;;;;;11.90;73.86;100435.25;4909709;29;20052;-63
2021/05/13 03:33:18;;;;;;;6.75;5.57;;;;;;;11.98;73.88;100428.06;4891930;29;20067;-63
2021/05/13 03:35:44;;;;;;;6.13;5.25;;;;;;;12.04;73.44;100433.28;4909315;29;20048;-62
2021/05/13 03:38:11;;;;;;;8.60;5.75;;;;;;;12.13;73.19;100438.47;4909734;29;20694;-63
2021/05/13 03:40:40;;;;;;;8.45;5.28;;;;;;;12.15;73.27;100439.28;4948932;28;20150;-63
2021/05/13 03:43:06;;;;;;;7.93;5.95;;;;;;;12.20;72.57;100428.59;4971073;28;20181;-63
2021/05/13 03:45:33;;;;;;;7.38;5.63;;;;;;;12.24;71.95;100427.66;4970891;28;20066;-62
2021/05/13 03:48:02;;;;;;;8.63;6.03;;;;;;;12.22;72.21;100422.34;4971090;28;20046;-62
2021/05/13 03:50:33;;;;;;;9.55;6.10;;;;;;;12.36;72.41;100423.00;4969768;28;20046;-62
2021/05/13 03:52:59;;;;;;;8.18;5.88;;;;;;;12.31;71.45;100424.00;4954850;28;20136;-61
2021/05/13 03:55:25;;;;;;;11.05;6.20;;;;;;;12.29;72.45;100413.38;4953625;28;20133;-65
2021/05/13 03:57:54;;;;;;;7.88;6.00;;;;;;;12.34;71.52;100416.81;4986375;28;20048;-64
2021/05/13 04:00:27;;;;;;;12.05;6.22;;;;;;;12.28;71.87;100422.25;4971202;28;20084;-64
2021/05/13 04:02:53;;;;;;;;;;;;;;;12.11;71.92;100423.44;4987462;28;20085;-61
2021/05/13 04:05:19;;;;;;;8.13;5.97;;;;;;;12.00;73.17;100425.38;4986100;28;20330;-61
2021/05/13 04:07:47;;;;;;;9.80;5.80;;;;;;;12.32;72.64;100425.75;4950260;28;20074;-61
2021/05/13 04:10:13;;;;;;;8.07;5.82;;;;;;;12.47;72.09;100417.50;4966169;28;20128;-63
2021/05/13 04:12:40;;;;;;;8.20;5.80;;;;;;;12.64;71.29;100413.66;4970143;28;20553;-64
2021/05/13 04:15:09;;;;;;;7.97;5.55;;;;;;;12.74;71.29;100401.06;4953954;28;20045;-64
2021/05/13 04:17:36;;;;;;;8.18;5.85;;;;;;;12.75;70.72;100394.81;4950817;28;20091;-64
2021/05/13 04:20:03;;;;;;;9.48;5.70;;;;;;;12.87;70.26;100411.44;4948840;28;20065;-63
2021/05/13 04:22:29;;;;;;;10.40;6.13;;;;;;;13.01;70.03;100413.84;4947621;28;20057;-64
2021/05/13 04:24:55;;;;;;;6.93;5.78;;;;;;;12.94;69.52;100406.88;4932021;28;20077;-63
2021/05/13 04:27:21;;;;;;;10.98;6.05;;;;;;;12.71;70.38;100409.94;4981589;28;20042;-66
2021/05/13 04:29:47;;;;;;;10.75;6.60;;;;;;;12.54;70.32;100406.72;4968090;28;20053;-65
2021/05/13 04:32:13;;;;;;;12.38;6.55;;;;;;;12.65;70.70;100410.06;4952556;28;20046;-65
2021/05/13 04:34:39;;;;;;;14.80;6.55;;;;;;;12.84;70.25;100403.50;4987180;28;20147;-65
2021/05/13 04:37:05;;;;;;;9.15;5.60;;;;;;;12.97;69.72;100393.47;4986466;28;20042;-64
2021/05/13 04:39:31;;;;;;;9.75;5.10;;;;;;;13.06;68.78;100378.25;4982818;28;20046;-64
2021/05/13 04:41:57;;;;;;;11.95;5.60;;;;;;;13.18;68.84;100380.66;4967834;28;20049;-64
2021/05/13 04:44:24;;;;;;;8.23;4.85;;;;;;;13.27;68.99;100379.59;4935982;28;20462;-64
2021/05/13 04:46:57;;;;;;;12.35;4.45;;;;;;;13.41;67.70;100378.38;4952019;28;20046;-64
2021/05/13 04:49:25;;;;;;;7.38;4.10;;;;;;;13.52;67.62;100383.47;4985391;28;20928;-64
2021/05/13 04:51:52;;;;;;;7.95;4.20;;;;;;;13.25;67.03;100387.63;4986106;28;20502;-64
2021/05/13 04:54:19;;;;;;;9.77;4.43;;;;;;;13.40;66.79;100397.94;4986085;28;20100;-63
2021/05/13 04:56:45;;;;;;;6.20;3.45;;;;;;;13.56;66.32;100387.81;4984288;28;20049;-64
2021/05/13 04:59:12;;;;;;;7.28;3.80;;;;;;;13.72;65.69;100395.44;4969722;28;20039;-63
2021/05/13 05:01:38;;;;;;;6.78;3.38;;;;;;;13.80;65.60;100380.16;4953323;28;20093;-63
2021/05/13 05:04:04;;;;;;;7.97;3.45;;;;;;;13.81;64.59;100376.56;4983678;28;20046;-67
2021/05/13 05:06:31;;;;;;;8.95;3.10;;;;;;;13.96;64.23;100390.47;4952937;28;20089;-65
2021/05/13 05:08:57;;;;;;;8.38;2.83;;;;;;;14.09;63.75;100389.25;4952407;28;20043;-63
2021/05/13 05:11:23;;;;;;;7.57;2.30;;;;;;;14.08;62.78;100388.38;4953040;28;20053;-63
2021/05/13 05:13:49;;;;;;;4.68;2.55;;;;;;;14.17;61.86;100387.28;4982771;28;20042;-64
2021/05/13 05:16:16;;;;;;;4.88;2.10;;;;;;;14.13;60.86;100370.47;4968729;28;20061;-64
2021/05/13 05:18:42;;;;;;;5.22;1.85;;;;;;;14.29;60.51;100379.00;4986437;28;20328;-64
2021/05/13 05:21:08;;;;;;;1.52;1.30;;;;;;;14.31;60.64;100383.38;4968025;28;20125;-66
2021/05/13 05:23:34;;;;;;;4.88;1.73;;;;;;;14.41;60.33;100382.25;4983897;28;20058;-64
2021/05/13 05:26:00;;;;;;;4.10;1.70;;;;;;;14.52;60.45;100381.97;4948229;28;20090;-65
2021/05/13 05:28:27;;;;;;;2.83;1.60;;;;;;;14.58;60.30;100380.00;4965737;28;20047;-64
2021/05/13 05:30:54;;;;;;;3.30;1.60;;;;;;;14.65;60.01;100380.72;4963487;28;20130;-65
2021/05/13 05:33:22;;;;;;;8.15;2.67;;;;;;;14.53;60.22;100370.38;4950607;28;20057;-63
2021/05/13 05:35:48;;;;;;;6.43;1.95;;;;;;;14.69;59.91;100377.03;4966512;28;20059;-64
2021/05/13 05:38:14;;;;;;;5.55;2.80;;;;;;;14.61;61.34;100384.38;4965504;28;20078;-65
2021/05/13 05:40:40;;;;;;;9.20;6.35;;;;;;;14.41;64.62;100371.56;4974964;28;20121;-64
2021/05/13 05:43:06;;;;;;;8.68;3.33;;;;;;;14.02;64.35;100382.31;4986280;28;20046;-62
2021/05/13 05:45:32;;;;;;;9.15;4.38;;;;;;;13.91;67.07;100385.22;4986579;28;20053;-63
2021/05/13 05:48:03;;;;;;;5.95;4.25;;;;;;;13.92;67.19;100380.78;4966922;28;20045;-64
2021/05/13 05:50:38;;;;;;;8.30;5.40;;;;;;;13.84;67.53;100379.19;4937568;28;20049;-63
2021/05/13 05:53:05;;;;;;;5.70;4.18;;;;;;;14.09;67.26;100373.25;4969068;28;20038;-64
2021/05/13 05:55:32;;;;;;;10.73;4.45;;;;;;;14.42;66.08;100378.66;4966283;28;20125;-62
2021/05/13 05:58:00;;;;;;;12.45;6.07;;;;;;;14.56;64.41;100372.97;4949866;28;20491;-62
2021/05/13 06:00:26;;;;;;;5.78;3.88;;;;;;;14.66;64.97;100382.47;4967097;28;20503;-62
2021/05/13 06:02:53;;;;;;;10.90;4.07;;;;;;;14.74;63.42;100386.69;4962056;28;20050;-64
2021/05/13 06:05:19;;;;;;;9.60;3.22;;;;;;;14.90;60.56;100373.78;4952968;28;20186;-64
2021/05/13 06:07:45;;;;;;;10.85;4.25;;;;;;;14.85;62.59;100371.25;4986280;28;21008;-66
2021/05/13 06:10:13;;;;;;;15.68;4.53;;;;;;;15.30;62.48;100377.06;4936222;28;20172;-63
2021/05/13 06:12:40;;;;;;;9.43;4.50;;;;;;;15.31;62.07;100378.84;4984119;28;20062;-63
2021/05/13 06:15:12;;;;;;;23.40;4.35;;;;;;;15.77;59.42;100381.88;4986230;28;20093;-62
2021/05/13 06:17:38;;;;;;;17.27;4.03;;;;;;;16.39;58.13;100378.94;4969198;28;20362;-63
2021/05/13 06:20:07;;;;;;;12.15;4.20;;;;;;;16.32;58.01;100352.41;4967140;28;20054;-63
2021/05/13 06:22:33;;;;;;;9.75;4.32;;;;;;;16.12;58.99;100362.91;4968753;28;20034;-63
2021/05/13 06:25:00;;;;;;;6.38;3.97;;;;;;;16.17;58.82;100361.84;4951308;28;20086;-62
2021/05/13 06:27:28;;;;;;;7.22;4.20;;;;;;;16.17;58.24;100358.28;4967573;28;20050;-64
2021/05/13 06:29:54;;;;;;;14.68;4.55;;;;;;;16.09;58.91;100360.31;4985576;28;20133;-64
2021/05/13 06:32:20;;;;;;;9.15;4.90;;;;;;;15.75;60.27;100351.66;4936866;28;20158;-66
2021/05/13 06:34:46;;;;;;;8.30;4.25;;;;;;;15.76;59.15;100353.41;4952483;28;20116;-66
2021/05/13 06:37:11;;;;;;;9.68;4.28;;;;;;;15.97;59.54;100345.56;4950271;28;20050;-61
2021/05/13 06:39:38;;;;;;;9.30;4.20;;;;;;;16.03;58.97;100331.13;4951968;28;20067;-64
2021/05/13 06:42:14;;;;;;;11.02;4.45;;;;;;;16.10;58.51;100346.06;4985332;28;20056;-65
2021/05/13 06:44:40;;;;;;;17.73;4.20;;;;;;;16.13;58.65;100349.47;4983969;28;20085;-65
2021/05/13 06:47:07;;;;;;;9.00;4.10;;;;;;;16.01;59.34;100332.94;4985749;28;20066;-63
2021/05/13 06:49:34;;;;;;;12.35;4.18;;;;;;;15.97;58.98;100337.53;4952547;28;20073;-65
2021/05/13 06:52:00;;;;;;;7.65;3.70;;;;;;;16.19;57.43;100333.25;4984287;28;20043;-65
2021/05/13 06:54:26;;;;;;;11.88;3.63;;;;;;;16.59;55.42;100330.97;4965014;28;20050;-66
2021/05/13 06:56:53;;;;;;;6.32;3.35;;;;;;;16.42;56.10;100330.66;4985691;28;20127;-64
2021/05/13 06:59:19;;;;;;;15.75;3.92;;;;;;;16.78;55.91;100325.81;4969938;28;20564;-63
2021/05/13 07:01:45;;;;;;;18.23;3.80;;;;;;;16.96;53.82;100306.38;4970596;28;20058;-62
2021/05/13 07:04:11;;;;;;;10.63;3.05;;;;;;;17.67;52.73;100332.22;4955687;28;20726;-61
2021/05/13 07:06:37;;;;;;;5.35;2.58;;;;;;;18.22;50.99;100320.09;4956052;28;20106;-63
2021/05/13 07:09:06;;;;;;;5.43;2.65;;;;;;;18.51;46.28;100310.81;4971309;28;20050;-64
2021/05/13 07:11:33;;;;;;;4.00;2.50;;;;;;;19.04;44.45;100320.94;4985247;28;20061;-64
2021/05/13 07:13:59;;;;;;;4.95;2.35;;;;;;;19.40;44.50;100310.31;4972130;28;20046;-63
2021/05/13 07:16:29;;;;;;;8.10;2.45;;;;;;;19.55;43.01;100296.13;4989583;28;20096;-64
2021/05/13 07:18:55;;;;;;;6.60;2.08;;;;;;;19.73;42.22;100320.34;4922454;28;20074;-64
2021/05/13 07:21:22;;;;;;;9.13;2.10;;;;;;;19.18;42.07;100299.66;4971964;28;20081;-64
2021/05/13 07:23:49;;;;;;;5.63;1.80;;;;;;;20.05;41.30;100313.38;4988551;28;20039;-65
2021/05/13 07:26:15;;;;;;;5.18;2.08;;;;;;;20.35;41.24;100311.84;4953632;28;20203;-64
2021/05/13 07:28:41;;;;;;;12.18;2.95;;;;;;;20.72;43.20;100306.28;4987061;28;20081;-65
2021/05/13 07:31:08;;;;;;;7.72;2.75;;;;;;;21.37;40.94;100303.66;4988874;28;20046;-63
2021/05/13 07:33:36;;;;;;;9.57;2.20;;;;;;;21.43;40.13;100304.19;4955444;28;20395;-65
2021/05/13 07:36:03;;;;;;;2.58;1.80;;;;;;;20.72;40.47;100303.59;4986667;28;20124;-65
2021/05/13 07:38:29;;;;;;;4.20;2.05;;;;;;;20.87;39.72;100302.78;4955564;28;20042;-65
2021/05/13 07:40:58;;;;;;;8.88;2.03;;;;;;;20.99;38.09;100297.66;4987588;28;20046;-63
2021/05/13 07:43:24;;;;;;;6.03;2.08;;;;;;;20.98;37.42;100304.00;4954750;28;20137;-65
2021/05/13 07:45:52;;;;;;;6.78;1.90;;;;;;;21.28;37.10;100307.72;4970181;28;20153;-63
2021/05/13 07:48:18;;;;;;;9.23;2.08;;;;;;;21.61;36.51;100307.69;4988612;28;20148;-63
2021/05/13 07:50:45;;;;;;;4.78;1.55;;;;;;;21.54;35.58;100292.78;4971088;28;20049;-65
2021/05/13 07:53:11;;;;;;;3.45;1.60;;;;;;;21.70;35.44;100294.56;4967885;28;20054;-64
2021/05/13 07:55:40;;;;;;;4.85;1.70;;;;;;;21.87;34.82;100286.38;4969355;28;20050;-64
2021/05/13 07:58:06;;;;;;;4.75;2.03;;;;;;;22.43;34.39;100296.56;4988016;28;20100;-65
2021/05/13 08:00:32;;;;;;;13.82;1.90;;;;;;;22.67;34.34;100281.59;4970923;28;20042;-65
2021/05/13 08:02:58;;;;;;;6.35;2.00;;;;;;;23.62;33.26;100279.06;4970043;28;20050;-65
2021/05/13 08:05:24;;;;;;;2.70;1.70;;;;;;;25.64;30.81;100288.38;4988542;28;20132;-66
2021/05/13 08:07:51;;;;;;;7.90;1.95;;;;;;;27.16;28.31;100283.88;4988277;28;20138;-64
2021/05/13 08:10:19;;;;;;;2.72;1.70;;;;;;;27.64;27.11;100274.53;4952085;28;20050;-65
2021/05/13 08:12:44;;;;;;;3.92;1.90;;;;;;;28.72;25.58;100287.97;4954270;28;20130;-65
2021/05/13 08:15:14;;;;;;;5.57;2.60;;;;;;;30.23;23.65;100291.63;4955024;28;20045;-66
2021/05/13 08:17:41;;;;;;;4.63;1.60;;;;;;;30.71;23.26;100291.66;4970089;28;20054;-66
2021/05/13 08:20:10;;;;;;;4.57;1.20;;;;;;;30.43;22.86;100297.97;4970261;28;20085;-66
2021/05/13 08:22:48;;;;;;;4.32;1.50;;;;;;;31.05;21.42;100295.66;4970626;28;20050;-64
2021/05/13 08:25:18;;;;;;;3.08;1.70;;;;;;;30.31;22.05;100282.69;4967622;28;20070;-67
2021/05/13 08:27:47;;;;;;;4.90;1.20;;;;;;;30.07;22.86;100272.13;4954136;28;20049;-63
2021/05/13 08:30:13;;;;;;;4.90;1.60;;;;;;;31.00;22.54;100279.66;4970257;28;20050;-64
2021/05/13 08:32:39;;;;;;;3.63;1.25;;;;;;;30.68;22.38;100278.22;4937133;28;20161;-67
2021/05/13 08:35:06;;;;;;;4.03;1.60;;;;;;;30.67;21.79;100262.81;4937493;28;20046;-67
2021/05/13 08:37:32;;;;;;;6.00;1.73;;;;;;;31.81;21.10;100284.47;4988013;28;20043;-64
2021/05/13 08:39:58;;;;;;;5.40;1.50;;;;;;;32.67;20.26;100291.09;4969269;28;20115;-65
2021/05/13 08:42:25;;;;;;;2.38;1.50;;;;;;;32.85;19.63;100283.75;4951566;28;20049;-65
2021/05/13 08:44:51;;;;;;;9.60;1.90;;;;;;;32.85;20.17;100278.25;4987411;28;20042;-67
2021/05/13 08:47:18;;;;;;;1.45;1.35;;;;;;;33.94;19.46;100283.94;4970173;28;20140;-68
2021/05/13 08:49:44;;;;;;;5.40;1.40;;;;;;;32.63;20.02;100273.19;4937751;28;20042;-64
2021/05/13 08:52:16;;;;;;;2.47;1.23;;;;;;;33.97;18.98;100269.81;4985814;28;20070;-65
2021/05/13 08:54:56;;;;;;;4.07;1.42;;;;;;;33.75;18.94;100264.91;4950152;28;20043;-66
2021/05/13 08:57:23;;;;;;;5.93;1.55;;;;;;;34.71;19.41;100267.91;4958095;28;20052;-66
2021/05/13 08:59:50;;;;;;;10.52;2.10;;;;;;;34.46;18.58;100255.19;4966627;28;20054;-68
2021/05/13 09:02:17;;;;;;;5.40;1.48;;;;;;;31.88;21.33;100260.91;4953093;28;20668;-66
2021/05/13 09:04:48;;;;;;;3.70;1.20;;;;;;;28.21;23.72;100253.34;4952548;28;20517;-68
2021/05/13 09:07:22;;;;;;;3.40;1.50;;;;;;;27.70;24.52;100246.75;4969651;28;20093;-63
2021/05/13 09:10:08;;;;;;;4.53;1.40;;;;;;;29.36;23.55;100243.09;4953270;28;20096;-67
2021/05/13 09:12:39;;;;;;;4.32;1.63;;;;;;;29.44;22.43;100217.81;4951803;28;20075;-66
2021/05/13 09:15:09;;;;;;;2.58;1.38;;;;;;;28.47;23.94;100250.16;4953459;28;20038;-68
2021/05/13 09:17:37;;;;;;;7.50;1.40;;;;;;;27.53;25.41;100228.22;4968076;28;20050;-67
2021/05/13 09:20:05;;;;;;;3.50;1.10;;;;;;;27.27;25.76;100227.63;4987037;28;20050;-67
2021/05/13 09:22:32;;;;;;;5.70;1.20;;;;;;;26.69;26.52;100229.66;4937369;28;20556;-67
2021/05/13 09:25:02;;;;;;;5.53;1.38;;;;;;;27.47;25.76;100215.97;4951811;28;20056;-67
2021/05/13 09:27:51;;;;;;;3.30;1.17;;;;;;;27.05;26.15;100226.72;4983231;28;20041;-67
2021/05/13 09:30:24;;;;;;;4.10;1.20;;;;;;;25.67;27.67;100224.84;4968606;28;20077;-68
2021/05/13 09:32:55;;;;;;;3.55;1.30;;;;;;;24.39;29.38;100208.84;4951989;28;20923;-67
2021/05/13 09:35:23;;;;;;;3.88;1.70;;;;;;;24.45;30.05;100224.69;4937004;28;20506;-69
2021/05/13 09:37:53;;;;;;;5.75;1.42;;;;;;;24.51;29.83;100213.41;4967654;28;20092;-68
2021/05/13 09:40:40;;;;;;;12.68;2.20;;;;;;;23.86;30.38;100217.91;4983815;28;20110;-68
2021/05/13 09:43:23;;;;;;;6.63;1.40;;;;;;;23.95;29.74;100221.84;4969424;28;20050;-67
2021/05/13 09:45:54;;;;;;;6.15;2.70;;;;;;;25.22;28.72;100231.75;4968839;28;20073;-67
2021/05/13 09:48:43;;;;;;;4.35;1.58;;;;;;;24.81;29.15;100227.56;4969022;28;20160;-68
2021/05/13 09:51:23;;;;;;;4.00;1.50;;;;;;;24.96;28.81;100232.75;4953335;28;20046;-68
2021/05/13 09:54:15;;;;;;;7.93;1.20;;;;;;;23.92;29.00;100244.59;4946336;28;20462;-67
2021/05/13 09:56:43;;;;;;;4.25;1.35;;;;;;;24.69;28.89;100232.00;4977676;28;20199;-67
2021/05/13 09:59:28;;;;;;;4.57;1.70;;;;;;;24.63;29.25;100227.00;4968798;28;20118;-66
2021/05/13 10:01:55;;;;;;;8.55;2.20;;;;;;;25.77;28.02;100244.88;4952912;28;20054;-67
2021/05/13 10:04:21;;;;;;;9.25;1.75;;;;;;;25.98;27.58;100253.34;4952587;28;20092;-66
2021/05/13 10:06:48;;;;;;;8.15;1.77;;;;;;;27.11;25.83;100245.28;4985409;28;20129;-68
2021/05/13 10:09:16;;;;;;;3.47;1.85;;;;;;;25.98;27.54;100243.31;4952261;28;20066;-65
2021/05/13 10:11:45;;;;;;;3.08;1.83;;;;;;;26.33;27.37;100241.50;4967555;28;20050;-68
2021/05/13 10:14:13;;;;;;;5.25;1.80;;;;;;;26.35;26.88;100247.69;4969035;28;20048;-68
2021/05/13 10:16:41;;;;;;;2.28;1.73;;;;;;;26.76;26.54;100233.59;4951098;28;20078;-66
2021/05/13 10:19:20;;;;;;;5.63;1.83;;;;;;;28.35;25.13;100245.72;4986315;28;20088;-70
2021/05/13 10:21:46;;;;;;;4.97;1.42;;;;;;;30.16;23.99;100235.72;4952107;28;20057;-72
2021/05/13 10:24:12;;;;;;;6.00;1.63;;;;;;;29.53;23.83;100250.66;4985028;28;20026;-66
2021/05/13 10:26:41;;;;;;;2.80;1.00;;;;;;;27.30;25.68;100234.66;4951011;28;20062;-67
2021/05/13 10:29:22;;;;;;;4.47;1.30;;;;;;;28.05;24.90;100226.47;4936861;28;20042;-70
2021/05/13 10:32:00;;;;;;;5.07;1.45;;;;;;;28.02;25.09;100214.97;4954053;28;20129;-70
2021/05/13 10:34:42;;;;;;;3.55;1.20;;;;;;;27.14;26.03;100234.16;4970820;28;20053;-66
2021/05/13 10:37:36;;;;;;;6.70;1.20;;;;;;;26.08;26.71;100233.50;4957958;28;20149;-67
2021/05/13 10:40:42;;;;;;;7.93;1.13;;;;;;;23.88;30.25;100223.19;4953870;28;20097;-67
2021/05/13 10:43:08;;;;;;;4.00;1.15;;;;;;;24.81;28.86;100222.97;4987828;28;20056;-69
2021/05/13 10:45:36;;;;;;;3.15;1.10;;;;;;;24.85;28.80;100196.53;4938390;28;20046;-69
2021/05/13 10:48:19;;;;;;;1.67;1.20;;;;;;;25.42;28.61;100214.91;4972688;28;20058;-66
2021/05/13 10:51:04;;;;;;;7.25;1.33;;;;;;;24.69;29.74;100215.72;4954312;28;20205;-67
2021/05/13 10:53:34;;;;;;;5.80;1.50;;;;;;;24.80;29.08;100212.28;4955704;28;20054;-66
2021/05/13 10:56:19;;;;;;;5.13;1.40;;;;;;;24.96;28.53;100219.19;4986979;28;20054;-71
2021/05/13 10:59:09;;;;;;;1.85;1.02;;;;;;;24.54;29.70;100214.06;4955256;28;20087;-68
2021/05/13 11:01:38;;;;;;;5.70;1.63;;;;;;;24.46;29.99;100205.59;4970347;28;20049;-66
2021/05/13 11:04:23;;;;;;;10.57;1.85;;;;;;;23.36;30.70;100208.66;4971661;28;20050;-67
2021/05/13 11:06:59;;;;;;;3.45;1.30;;;;;;;22.85;31.49;100191.19;4953912;28;20426;-68
2021/05/13 11:09:37;;;;;;;8.80;1.38;;;;;;;22.37;32.43;100201.44;4925177;28;20052;-72
2021/05/13 11:12:12;;;;;;;2.65;1.00;;;;;;;22.90;32.00;100208.00;4953087;28;20058;-71
2021/05/13 11:15:06;;;;;;;5.50;1.45;;;;;;;24.43;29.85;100203.09;4972219;28;20046;-70
2021/05/13 11:20:25;;;;;;;7.82;1.95;;;;;;;24.80;29.23;100133.59;4971474;28;20061;-67
2021/05/13 11:22:59;;;;;;;5.75;1.70;;;;;;;24.87;29.47;100197.25;4969321;28;20053;-67
2021/05/13 11:25:33;;;;;;;8.80;1.33;;;;;;;24.57;29.88;100184.00;4987947;28;20066;-65
2021/05/13 11:28:00;;;;;;;16.05;2.42;;;;;;;23.50;31.02;100171.56;4935602;28;20570;-67
2021/05/13 11:30:28;;;;;;;2.67;1.23;;;;;;;23.42;30.86;100173.91;4966234;28;20046;-67
2021/05/13 11:32:54;;;;;;;3.55;1.20;;;;;;;23.95;29.83;100170.38;4950249;28;20058;-70
2021/05/13 11:35:21;;;;;;;6.32;1.20;;;;;;;22.50;31.61;100164.63;4968029;28;20077;-67
2021/05/13 11:37:52;;;;;;;3.13;1.00;;;;;;;22.02;32.75;100160.34;4969511;28;20130;-69